createdAt,value
2019-02-17T00:01:31.101Z,42.74
2019-02-17T00:04:04.707Z,43.52
2019-02-17T00:06:38.918Z,44.74
2019-02-17T00:09:14.444Z,45.50
2019-02-17T00:11:48.439Z,44.57
2019-02-17T00:14:23.908Z,43.57
2019-02-17T00:16:57.375Z,43.81
2019-02-17T00:19:31.559Z,43.57
2019-02-17T00:22:05.367Z,43.02
2019-02-17T00:24:39.246Z,44.44
2019-02-17T00:27:14.153Z,43.51
2019-02-17T00:29:47.944Z,43.59
2019-02-17T00:32:23.305Z,42.60
2019-02-17T00:34:58.462Z,40.95
2019-02-17T00:37:32.300Z,40.16
2019-02-17T00:40:08.542Z,38.87
2019-02-17T00:42:43.701Z,38.87
2019-02-17T00:45:19.207Z,40.52
2019-02-17T00:47:53.617Z,40.17
2019-02-17T00:50:32.407Z,38.67
2019-02-17T00:53:07.096Z,37.65
2019-02-17T00:55:45.604Z,38.02
2019-02-17T00:58:21.621Z,40.09
2019-02-17T01:00:58.655Z,40.40
2019-02-17T01:03:35.593Z,39.93
2019-02-17T01:06:09.666Z,40.17
2019-02-17T01:09:07.947Z,39.33
2019-02-17T01:12:05.466Z,40.07
2019-02-17T01:14:40.227Z,38.84
2019-02-17T01:20:13.325Z,37.81
2019-02-17T01:22:53.769Z,37.26
2019-02-17T01:25:30.744Z,37.27
2019-02-17T01:28:13.387Z,36.63
2019-02-17T01:31:13.907Z,37.63
2019-02-17T01:33:48.450Z,37.68
2019-02-17T01:36:22.118Z,37.15
2019-02-17T01:38:58.852Z,37.91
2019-02-17T01:41:35.827Z,39.29
2019-02-17T01:47:33.679Z,38.39
2019-02-17T01:50:12.162Z,38.81
2019-02-17T01:56:17.070Z,40.93
2019-02-17T01:59:09.391Z,40.15
2019-02-17T02:02:00.068Z,40.30
2019-02-17T02:04:41.388Z,40.40
2019-02-17T02:07:32.134Z,40.36
2019-02-17T02:12:53.274Z,37.67
2019-02-17T02:15:27.637Z,37.65
2019-02-17T02:18:02.180Z,37.94
2019-02-17T02:36:33.704Z,38.01
2019-02-17T02:39:08.999Z,36.88
2019-02-17T02:41:44.011Z,37.64
2019-02-17T02:44:18.459Z,36.77
2019-02-17T02:46:52.768Z,36.12
2019-02-17T02:49:30.914Z,37.26
2019-02-17T02:52:06.130Z,36.19
2019-02-17T02:54:40.809Z,37.96
2019-02-17T02:57:16.070Z,38.68
2019-02-17T02:59:52.646Z,36.87
2019-02-17T03:02:27.154Z,38.19
2019-02-17T03:05:01.549Z,37.69
2019-02-17T03:07:36.094Z,37.76
2019-02-17T03:10:12.533Z,37.29
2019-02-17T03:15:53.738Z,36.20
2019-02-17T03:18:33.717Z,36.63
2019-02-17T03:21:07.826Z,38.86
2019-02-17T03:23:44.868Z,40.94
2019-02-17T03:26:19.445Z,38.86
2019-02-17T03:31:57.434Z,38.48
2019-02-17T03:34:31.936Z,38.56
2019-02-17T03:37:08.479Z,37.19
2019-02-17T03:39:43.457Z,37.25
2019-02-17T03:42:18.778Z,36.88
2019-02-17T03:44:55.980Z,36.60
2019-02-17T03:47:29.815Z,37.77
2019-02-17T03:50:05.004Z,36.97
2019-02-17T03:55:37.930Z,36.31
2019-02-17T03:58:27.569Z,37.99
2019-02-17T04:01:20.694Z,36.72
2019-02-17T04:03:56.848Z,36.72
2019-02-17T04:06:31.290Z,37.33
2019-02-17T04:09:05.669Z,36.51
2019-02-17T04:11:43.158Z,37.22
2019-02-17T04:14:22.681Z,36.67
2019-02-17T04:16:57.183Z,38.12
2019-02-17T04:19:34.005Z,38.26
2019-02-17T04:22:10.560Z,38.29
2019-02-17T04:24:46.856Z,38.57
2019-02-17T04:27:27.064Z,38.69
2019-02-17T04:30:05.703Z,39.13
2019-02-17T04:35:16.751Z,39.13
2019-02-17T04:37:50.829Z,38.30
2019-02-17T04:40:27.022Z,40.02
2019-02-17T04:43:02.260Z,40.16
2019-02-17T04:45:37.977Z,37.07
2019-02-17T04:48:11.915Z,38.29
2019-02-17T04:50:46.841Z,37.62
2019-02-17T04:53:22.917Z,37.88
2019-02-17T04:55:59.679Z,37.45
2019-02-17T04:58:35.130Z,39.26
2019-02-17T05:01:09.762Z,38.01
2019-02-17T05:03:43.770Z,38.01
2019-02-17T05:06:18.531Z,38.65
2019-02-17T05:08:53.564Z,38.39
2019-02-17T05:11:29.308Z,38.92
2019-02-17T05:14:04.772Z,39.04
2019-02-17T05:16:42.950Z,41.05
2019-02-17T05:19:17.226Z,38.62
2019-02-17T05:21:52.383Z,38.63
2019-02-17T05:24:26.951Z,38.55
2019-02-17T05:27:02.359Z,39.86
2019-02-17T05:29:38.280Z,37.16
2019-02-17T05:32:14.199Z,37.16
2019-02-17T05:34:53.759Z,37.13
2019-02-17T05:37:29.716Z,39.14
2019-02-17T05:40:24.009Z,38.45
2019-02-17T05:43:00.673Z,38.21
2019-02-17T05:45:37.302Z,38.18
2019-02-17T05:48:13.601Z,37.58
2019-02-17T05:50:48.876Z,37.49
2019-02-17T05:53:24.416Z,38.15
2019-02-17T05:55:59.435Z,38.70
2019-02-17T05:58:34.477Z,38.26
2019-02-17T06:01:08.939Z,38.11
2019-02-17T06:03:45.325Z,37.91
2019-02-17T06:06:22.108Z,38.56
2019-02-17T06:09:16.119Z,37.93
2019-02-17T06:11:51.578Z,37.46
2019-02-17T06:14:27.740Z,36.84
2019-02-17T06:17:05.053Z,35.92
2019-02-17T06:19:41.667Z,36.65
2019-02-17T06:22:17.600Z,37.79
2019-02-17T06:24:55.091Z,36.61
2019-02-17T06:27:30.981Z,36.28
2019-02-17T06:30:07.001Z,36.16
2019-02-17T06:32:42.687Z,35.63
2019-02-17T06:35:20.238Z,36.45
2019-02-17T06:37:55.564Z,36.82
2019-02-17T06:40:33.268Z,37.21
2019-02-17T06:43:08.588Z,35.86
2019-02-17T06:45:45.088Z,35.37
2019-02-17T06:48:20.642Z,36.04
2019-02-17T06:50:55.649Z,35.64
2019-02-17T06:53:30.933Z,36.30
2019-02-17T06:56:05.825Z,36.41
2019-02-17T06:58:41.923Z,35.56
2019-02-17T07:01:24.345Z,35.73
2019-02-17T07:03:52.476Z,34.55
2019-02-17T07:06:28.380Z,34.78
2019-02-17T07:09:06.052Z,34.44
2019-02-17T07:11:41.375Z,36.52
2019-02-17T07:14:16.283Z,34.60
2019-02-17T07:16:50.772Z,34.34
2019-02-17T07:19:26.662Z,37.00
2019-02-17T07:22:01.848Z,34.84
2019-02-17T07:24:36.115Z,33.85
2019-02-17T07:27:12.207Z,33.72
2019-02-17T07:29:48.563Z,34.84
2019-02-17T07:32:23.570Z,33.50
2019-02-17T07:34:59.729Z,33.00
2019-02-17T07:37:34.007Z,33.39
2019-02-17T07:40:09.884Z,35.54
2019-02-17T07:42:45.113Z,33.25
2019-02-17T07:45:20.625Z,33.25
2019-02-17T07:48:00.109Z,34.86
2019-02-17T07:50:42.770Z,35.64
2019-02-17T07:53:23.669Z,33.79
2019-02-17T07:55:59.048Z,33.69
2019-02-17T07:58:34.991Z,33.07
2019-02-17T08:01:13.004Z,32.76
2019-02-17T08:03:50.604Z,32.38
2019-02-17T08:06:30.813Z,33.80
2019-02-17T08:09:10.668Z,32.69
2019-02-17T08:11:46.270Z,34.93
2019-02-17T08:14:21.316Z,36.65
2019-02-17T08:16:57.306Z,32.87
2019-02-17T08:19:32.610Z,32.84
2019-02-17T08:22:09.826Z,32.20
2019-02-17T08:24:44.790Z,32.50
2019-02-17T08:27:20.717Z,31.65
2019-02-17T08:29:59.119Z,34.13
2019-02-17T08:32:34.251Z,33.00
2019-02-17T08:35:08.890Z,33.02
2019-02-17T08:37:46.378Z,32.67
2019-02-17T08:40:22.078Z,33.40
2019-02-17T08:43:00.792Z,33.29
2019-02-17T08:45:37.000Z,33.66
2019-02-17T08:48:13.262Z,33.83
2019-02-17T08:50:49.063Z,34.24
2019-02-17T08:53:26.613Z,34.35
2019-02-17T08:56:02.338Z,33.57
2019-02-17T08:58:37.040Z,34.17
2019-02-17T09:01:13.545Z,33.96
2019-02-17T09:03:48.444Z,34.70
2019-02-17T09:06:22.833Z,35.19
2019-02-17T09:08:58.113Z,33.73
2019-02-17T09:12:09.082Z,34.88
2019-02-17T09:17:44.875Z,34.51
2019-02-17T09:20:28.891Z,34.96
2019-02-17T09:23:07.508Z,33.91
2019-02-17T09:25:47.997Z,34.56
2019-02-17T09:28:24.482Z,35.57
2019-02-17T09:30:59.970Z,37.77
2019-02-17T09:33:41.450Z,35.38
2019-02-17T09:36:21.000Z,36.23
2019-02-17T09:38:59.829Z,35.99
2019-02-17T09:41:54.629Z,36.22
2019-02-17T09:47:04.537Z,36.00
2019-02-17T09:49:39.334Z,38.09
2019-02-17T09:52:14.270Z,37.38
2019-02-17T09:54:49.507Z,36.55
2019-02-17T09:57:26.890Z,37.80
2019-02-17T10:00:03.027Z,36.56
2019-02-17T10:02:39.272Z,37.72
2019-02-17T10:05:17.445Z,38.07
2019-02-17T10:07:53.503Z,37.19
2019-02-17T10:10:31.550Z,38.06
2019-02-17T10:13:07.334Z,37.86
2019-02-17T10:15:45.305Z,37.84
2019-02-17T10:18:21.875Z,40.59
2019-02-17T10:20:56.875Z,38.14
2019-02-17T10:23:32.100Z,38.14
2019-02-17T10:26:06.940Z,39.21
2019-02-17T10:28:43.925Z,38.26
2019-02-17T10:31:18.539Z,38.59
2019-02-17T10:33:54.769Z,36.63
2019-02-17T10:36:30.251Z,40.68
2019-02-17T10:39:05.153Z,41.09
2019-02-17T10:41:40.595Z,38.98
2019-02-17T10:44:16.670Z,37.59
2019-02-17T10:46:55.025Z,38.06
2019-02-17T10:49:35.482Z,37.72
2019-02-17T10:52:10.366Z,37.73
2019-02-17T10:54:45.381Z,37.42
2019-02-17T10:57:26.114Z,38.34
2019-02-17T11:00:02.366Z,38.19
2019-02-17T11:02:46.373Z,38.06
2019-02-17T11:05:22.621Z,36.87
2019-02-17T11:07:57.295Z,38.62
2019-02-17T11:10:31.911Z,37.12
2019-02-17T11:13:07.076Z,39.22
2019-02-17T11:15:42.348Z,40.26
2019-02-17T11:18:36.515Z,39.59
2019-02-17T11:21:11.954Z,40.88
2019-02-17T11:23:48.879Z,39.26
2019-02-17T11:26:26.069Z,40.84
2019-02-17T11:29:01.173Z,41.52
2019-02-17T11:31:36.035Z,38.87
2019-02-17T11:34:11.909Z,40.28
2019-02-17T11:36:49.889Z,36.64
2019-02-17T11:39:28.910Z,41.77
2019-02-17T11:42:11.447Z,38.39
2019-02-17T11:44:45.293Z,40.23
2019-02-17T11:47:20.276Z,40.01
2019-02-17T11:49:54.987Z,40.34
2019-02-17T11:52:30.290Z,36.92
2019-02-17T11:55:06.005Z,38.35
2019-02-17T11:57:41.934Z,39.04
2019-02-17T12:00:24.701Z,38.81
2019-02-17T12:03:07.648Z,38.96
2019-02-17T12:05:41.104Z,38.86
2019-02-17T12:08:24.347Z,38.01
2019-02-17T12:11:08.438Z,38.99
2019-02-17T12:13:44.788Z,38.50
2019-02-17T12:16:43.103Z,36.78
2019-02-17T12:19:21.985Z,38.19
2019-02-17T12:22:00.533Z,38.06
2019-02-17T12:24:38.903Z,39.22
2019-02-17T12:27:17.426Z,38.74
2019-02-17T12:29:53.903Z,37.89
2019-02-17T12:32:36.958Z,37.88
2019-02-17T12:35:18.197Z,38.80
2019-02-17T12:37:55.115Z,38.92
2019-02-17T12:40:32.092Z,38.60
2019-02-17T12:43:10.744Z,37.61
2019-02-17T12:45:52.510Z,38.20
2019-02-17T12:48:29.430Z,35.49
2019-02-17T12:51:08.024Z,36.16
2019-02-17T12:53:44.164Z,36.99
2019-02-17T12:56:22.617Z,38.18
2019-02-17T12:58:58.144Z,35.80
2019-02-17T13:01:35.858Z,37.22
2019-02-17T13:04:14.188Z,38.09
2019-02-17T13:06:49.754Z,39.57
2019-02-17T13:09:32.303Z,38.95
2019-02-17T13:12:08.752Z,38.09
2019-02-17T13:14:44.791Z,35.50
2019-02-17T13:17:20.670Z,36.38
2019-02-17T13:19:56.791Z,36.44
2019-02-17T13:22:32.864Z,38.46
2019-02-17T13:25:14.105Z,36.80
2019-02-17T13:27:49.879Z,33.87
2019-02-17T13:30:33.031Z,35.20
2019-02-17T13:33:06.176Z,36.01
2019-02-17T13:35:41.229Z,36.14
2019-02-17T13:38:20.017Z,35.89
2019-02-17T13:40:53.468Z,36.63
2019-02-17T13:46:25.823Z,34.56
2019-02-17T13:49:02.702Z,36.10
2019-02-17T13:51:39.026Z,34.49
2019-02-17T13:54:21.270Z,34.81
2019-02-17T13:57:06.219Z,36.90
2019-02-17T13:59:44.993Z,35.75
2019-02-17T14:08:08.267Z,34.79
2019-02-17T14:10:50.029Z,35.18
2019-02-17T14:13:30.054Z,34.99
2019-02-17T14:16:08.752Z,34.07
2019-02-17T14:18:44.437Z,33.22
2019-02-17T14:21:23.299Z,36.38
2019-02-17T14:24:02.092Z,36.64
2019-02-17T14:26:37.587Z,35.79
2019-02-17T14:29:15.429Z,34.85
2019-02-17T14:32:00.437Z,35.59
2019-02-17T14:34:34.024Z,34.88
2019-02-17T14:37:13.373Z,35.22
2019-02-17T14:39:50.627Z,36.85
2019-02-17T14:42:44.494Z,36.49
2019-02-17T14:45:22.828Z,36.54
2019-02-17T14:47:59.294Z,36.49
2019-02-17T14:50:38.234Z,36.80
2019-02-17T14:53:16.099Z,35.99
2019-02-17T14:55:53.225Z,36.79
2019-02-17T14:58:28.832Z,34.95
2019-02-17T15:01:08.981Z,35.51
2019-02-17T15:04:06.487Z,36.30
2019-02-17T15:06:35.162Z,36.30
2019-02-17T15:09:19.173Z,36.29
2019-02-17T15:12:09.229Z,35.57
2019-02-17T15:14:35.571Z,36.75
2019-02-17T15:17:11.891Z,38.65
2019-02-17T15:19:51.517Z,37.33
2019-02-17T15:22:26.538Z,39.09
2019-02-17T15:25:04.814Z,37.49
2019-02-17T15:27:49.915Z,36.56
2019-02-17T15:30:30.831Z,36.69
2019-02-17T15:52:37.373Z,36.50
2019-02-17T15:55:15.034Z,35.58
2019-02-17T15:57:55.034Z,35.29
2019-02-17T16:00:28.032Z,36.21
2019-02-17T16:03:03.558Z,35.81
2019-02-17T16:05:39.938Z,35.31
2019-02-17T16:08:16.603Z,37.31
2019-02-17T16:10:54.992Z,37.25
2019-02-17T16:13:29.749Z,35.64
2019-02-17T16:16:05.094Z,36.56
2019-02-17T16:18:39.748Z,35.67
2019-02-17T16:21:14.742Z,36.03
2019-02-17T16:23:50.112Z,35.52
2019-02-17T16:26:25.836Z,36.38
2019-02-17T16:29:00.354Z,36.34
2019-02-17T16:31:35.001Z,34.67
2019-02-17T16:34:09.107Z,36.29
2019-02-17T16:36:43.734Z,38.04
2019-02-17T16:39:18.103Z,38.24
2019-02-17T16:41:54.692Z,36.33
2019-02-17T16:44:29.641Z,36.02
2019-02-17T16:47:05.185Z,35.26
2019-02-17T16:49:43.067Z,37.05
2019-02-17T16:52:21.482Z,38.12
2019-02-17T16:54:56.303Z,36.23
2019-02-17T16:57:31.169Z,36.63
2019-02-17T17:00:11.296Z,35.50
2019-02-17T17:02:51.703Z,35.50
2019-02-17T17:05:29.234Z,34.80
2019-02-17T17:08:10.017Z,34.41
2019-02-17T17:10:42.471Z,36.53
2019-02-17T17:13:17.022Z,36.48
2019-02-17T17:15:51.710Z,36.10
2019-02-17T17:18:26.878Z,37.52
2019-02-17T17:21:22.248Z,37.84
2019-02-17T17:23:58.978Z,36.86
2019-02-17T17:26:32.268Z,37.78
2019-02-17T17:29:10.328Z,37.53
2019-02-17T17:31:42.428Z,39.17
2019-02-17T17:34:17.626Z,37.65
2019-02-17T17:36:52.340Z,39.53
2019-02-17T17:39:31.849Z,40.07
2019-02-17T17:42:05.238Z,38.48
2019-02-17T17:44:42.527Z,38.62
2019-02-17T17:47:17.133Z,39.51
2019-02-17T17:50:02.409Z,38.42
2019-02-17T17:52:37.044Z,38.51
2019-02-17T17:55:13.146Z,37.93
2019-02-17T17:57:53.747Z,40.25
2019-02-17T18:00:28.637Z,39.38
2019-02-17T18:03:03.202Z,38.51
2019-02-17T18:05:41.110Z,38.42
2019-02-17T18:08:16.001Z,37.67
2019-02-17T18:10:56.211Z,39.23
2019-02-17T18:13:28.338Z,39.75
2019-02-17T18:16:03.001Z,38.54
2019-02-17T18:18:37.612Z,38.54
2019-02-17T18:21:14.586Z,39.22
2019-02-17T18:23:48.699Z,40.06
2019-02-17T18:26:23.327Z,39.09
2019-02-17T18:28:57.988Z,41.34
2019-02-17T18:31:35.457Z,40.38
2019-02-17T18:34:08.186Z,40.36
2019-02-17T18:36:42.641Z,40.74
2019-02-17T18:39:17.530Z,40.48
2019-02-17T18:41:52.037Z,40.62
2019-02-17T18:44:32.959Z,41.13
2019-02-17T18:47:09.607Z,40.89
2019-02-17T18:49:47.056Z,42.65
2019-02-17T18:52:19.869Z,41.36
2019-02-17T18:54:56.041Z,40.80
2019-02-17T18:57:30.789Z,41.70
2019-02-17T19:00:09.135Z,41.40
2019-02-17T19:02:41.816Z,41.86
2019-02-17T19:05:17.287Z,41.78
2019-02-17T19:07:52.013Z,43.11
2019-02-17T19:10:26.703Z,43.16
2019-02-17T19:13:03.332Z,40.55
2019-02-17T19:15:36.623Z,42.49
2019-02-17T19:18:11.113Z,41.31
2019-02-17T19:20:46.206Z,41.19
2019-02-17T19:23:21.061Z,40.70
2019-02-17T19:25:55.875Z,43.29
2019-02-17T19:28:30.420Z,41.26
2019-02-17T19:31:08.720Z,39.71
2019-02-17T19:33:43.335Z,39.31
2019-02-17T19:36:19.883Z,39.85
2019-02-17T19:38:54.433Z,40.68
2019-02-17T19:41:29.984Z,39.80
2019-02-17T19:44:05.403Z,39.64
2019-02-17T19:46:44.835Z,38.11
2019-02-17T19:49:18.982Z,41.07
2019-02-17T19:52:01.420Z,40.23
2019-02-17T19:54:35.872Z,40.45
2019-02-17T19:57:10.693Z,39.01
2019-02-17T19:59:47.501Z,39.10
2019-02-17T20:02:21.205Z,40.29
2019-02-17T20:04:55.674Z,40.11
2019-02-17T20:07:32.588Z,38.26
2019-02-17T20:10:08.183Z,37.84
2019-02-17T20:12:42.884Z,38.92
2019-02-17T20:15:23.875Z,38.89
2019-02-17T20:17:58.469Z,38.60
2019-02-17T20:20:32.946Z,37.50
2019-02-17T20:23:10.800Z,39.33
2019-02-17T20:25:49.771Z,39.01
2019-02-17T20:28:40.563Z,38.23
2019-02-17T20:31:02.511Z,39.48
2019-02-17T20:33:39.976Z,38.14
2019-02-17T20:36:14.978Z,39.23
2019-02-17T20:38:49.211Z,38.67
2019-02-17T20:41:23.618Z,38.53
2019-02-17T20:43:57.884Z,37.87
2019-02-17T20:46:34.221Z,37.87
2019-02-17T20:49:08.713Z,37.63
2019-02-17T20:51:43.296Z,37.84
2019-02-17T20:54:17.560Z,39.06
2019-02-17T20:56:52.747Z,38.51
2019-02-17T20:59:27.131Z,39.74
2019-02-17T21:04:37.831Z,38.48
2019-02-17T21:07:12.323Z,39.54
2019-02-17T21:09:46.867Z,38.99
2019-02-17T21:12:21.289Z,40.03
2019-02-17T21:14:56.090Z,38.44
2019-02-17T21:17:33.933Z,39.18
2019-02-17T21:20:10.059Z,38.86
2019-02-17T21:22:46.159Z,39.29
2019-02-17T21:25:23.802Z,38.47
2019-02-17T21:27:58.315Z,39.74
2019-02-17T21:30:32.715Z,40.18
2019-02-17T21:33:07.323Z,39.63
2019-02-17T21:35:44.366Z,40.18
2019-02-17T21:38:18.462Z,39.43
2019-02-17T21:44:16.575Z,40.04
2019-02-17T22:11:19.413Z,41.11
2019-02-17T22:25:29.004Z,42.02
2019-02-17T22:28:04.306Z,41.84
2019-02-17T22:30:41.974Z,41.69
2019-02-17T22:33:15.918Z,42.44
2019-02-17T23:03:46.456Z,43.96
2019-02-17T23:18:31.276Z,46.37
2019-02-17T23:29:17.986Z,46.14
2019-02-17T23:32:08.844Z,46.28
2019-02-17T23:34:56.177Z,46.33
2019-02-17T23:56:42.381Z,40.92
